Flight Briefing for CPX323

Departure Arrival
Austin-Bergstrom International Airport (KAUS)
Click to view FAA NOTAMS
Miami International Airport (KMIA)
Click to view FAA NOTAMS
Departure Time Arrival Time
N/A N/A
Aircraft Distance
B767-300BDSF 990nm
Departure METAR Arrival METAR
KAUS 221253Z 00000KT 10SM FEW200 08/06 A3017 RMK AO2 SLP215 T00780061 $ KMIA 221253Z 34008KT 10SM CLR 17/11 A3009 RMK AO2 SLP190 T01670111
Suggested Route
ILEXY2 ZENZI IAH J86 LEV Q102 BAGGS SSCOT5


View recent IFR Routes data
Notes



Charts and Procedures

Charts for KAUS
No chart available
Charts for KMIA
No chart available

Windy.com Weather Map